sensor_id;sensor_type;location;lat;lon;timestamp;pressure;altitude;pressure_sealevel;temperature;humidity
73245;BME280;61460;41.158;-73.238;2023-04-21T00:01:24;101957.03;;;22.58;45.10
73245;BME280;61460;41.158;-73.238;2023-04-21T00:03:55;101955.43;;;22.73;45.19
73245;BME280;61460;41.158;-73.238;2023-04-21T00:06:26;101957.18;;;22.76;45.35
73245;BME280;61460;41.158;-73.238;2023-04-21T00:08:56;101956.39;;;22.78;45.11
73245;BME280;61460;41.158;-73.238;2023-04-21T00:11:27;101948.82;;;22.88;45.01
73245;BME280;61460;41.158;-73.238;2023-04-21T00:13:58;101953.00;;;22.88;44.91
73245;BME280;61460;41.158;-73.238;2023-04-21T00:16:28;101961.34;;;22.92;44.68
73245;BME280;61460;41.158;-73.238;2023-04-21T00:18:59;101956.40;;;22.92;44.79
73245;BME280;61460;41.158;-73.238;2023-04-21T00:21:30;101956.04;;;22.93;45.02
73245;BME280;61460;41.158;-73.238;2023-04-21T00:24:00;101959.08;;;22.98;44.68
73245;BME280;61460;41.158;-73.238;2023-04-21T00:26:31;101956.94;;;22.94;45.06
73245;BME280;61460;41.158;-73.238;2023-04-21T00:29:02;101964.17;;;23.03;44.91
73245;BME280;61460;41.158;-73.238;2023-04-21T00:31:32;101965.01;;;23.04;44.79
73245;BME280;61460;41.158;-73.238;2023-04-21T00:34:03;101967.10;;;23.10;44.63
73245;BME280;61460;41.158;-73.238;2023-04-21T00:36:33;101969.96;;;23.09;44.29
73245;BME280;61460;41.158;-73.238;2023-04-21T00:39:04;101971.77;;;23.11;44.26
73245;BME280;61460;41.158;-73.238;2023-04-21T00:41:36;101970.85;;;23.13;44.10
73245;BME280;61460;41.158;-73.238;2023-04-21T00:44:06;101974.52;;;23.20;44.04
73245;BME280;61460;41.158;-73.238;2023-04-21T00:46:36;101976.30;;;23.19;44.45
73245;BME280;61460;41.158;-73.238;2023-04-21T00:49:06;101979.07;;;23.19;44.75
73245;BME280;61460;41.158;-73.238;2023-04-21T00:51:39;101978.99;;;23.20;44.44
73245;BME280;61460;41.158;-73.238;2023-04-21T00:54:11;101981.10;;;23.25;44.17
73245;BME280;61460;41.158;-73.238;2023-04-21T00:56:39;101977.70;;;23.20;44.30
73245;BME280;61460;41.158;-73.238;2023-04-21T00:59:09;101972.96;;;23.26;44.36
73245;BME280;61460;41.158;-73.238;2023-04-21T01:01:40;101976.26;;;23.28;44.56
73245;BME280;61460;41.158;-73.238;2023-04-21T01:04:10;101973.83;;;23.32;44.28
73245;BME280;61460;41.158;-73.238;2023-04-21T01:06:41;101974.73;;;23.31;44.40
73245;BME280;61460;41.158;-73.238;2023-04-21T01:09:12;101973.85;;;23.35;43.63
73245;BME280;61460;41.158;-73.238;2023-04-21T01:14:13;101972.88;;;23.36;44.12
73245;BME280;61460;41.158;-73.238;2023-04-21T01:16:44;101974.71;;;23.38;43.95
73245;BME280;61460;41.158;-73.238;2023-04-21T01:19:14;101972.94;;;23.37;43.80
73245;BME280;61460;41.158;-73.238;2023-04-21T01:21:45;101978.08;;;23.40;44.03
73245;BME280;61460;41.158;-73.238;2023-04-21T01:24:16;101983.36;;;23.39;44.15
73245;BME280;61460;41.158;-73.238;2023-04-21T01:26:46;101984.50;;;23.43;43.96
73245;BME280;61460;41.158;-73.238;2023-04-21T01:29:17;101990.04;;;23.44;43.96
73245;BME280;61460;41.158;-73.238;2023-04-21T01:31:47;101990.44;;;23.43;44.09
73245;BME280;61460;41.158;-73.238;2023-04-21T01:34:18;101989.89;;;23.42;43.84
73245;BME280;61460;41.158;-73.238;2023-04-21T01:36:49;101997.19;;;23.50;43.63
73245;BME280;61460;41.158;-73.238;2023-04-21T01:39:19;102001.28;;;23.50;43.53
73245;BME280;61460;41.158;-73.238;2023-04-21T01:41:50;101997.16;;;23.52;43.37
73245;BME280;61460;41.158;-73.238;2023-04-21T01:44:21;102004.83;;;23.50;43.35
73245;BME280;61460;41.158;-73.238;2023-04-21T01:46:52;102001.38;;;23.53;43.82
73245;BME280;61460;41.158;-73.238;2023-04-21T01:49:22;102000.36;;;23.51;43.25
73245;BME280;61460;41.158;-73.238;2023-04-21T01:51:53;102004.82;;;23.50;43.56
73245;BME280;61460;41.158;-73.238;2023-04-21T01:54:23;102014.50;;;23.49;43.50
73245;BME280;61460;41.158;-73.238;2023-04-21T01:56:54;102020.21;;;23.51;43.51
73245;BME280;61460;41.158;-73.238;2023-04-21T01:59:25;102016.73;;;23.51;43.44
73245;BME280;61460;41.158;-73.238;2023-04-21T02:01:55;102017.51;;;23.51;43.84
73245;BME280;61460;41.158;-73.238;2023-04-21T02:04:26;102017.67;;;23.55;43.41
73245;BME280;61460;41.158;-73.238;2023-04-21T02:06:56;102016.96;;;23.56;43.26
73245;BME280;61460;41.158;-73.238;2023-04-21T02:09:27;102019.72;;;23.45;43.89
73245;BME280;61460;41.158;-73.238;2023-04-21T02:11:58;102020.32;;;23.24;44.09
73245;BME280;61460;41.158;-73.238;2023-04-21T02:14:28;102019.53;;;23.26;44.23
73245;BME280;61460;41.158;-73.238;2023-04-21T02:16:59;102015.26;;;23.26;44.38
73245;BME280;61460;41.158;-73.238;2023-04-21T02:19:30;102017.82;;;23.25;44.25
73245;BME280;61460;41.158;-73.238;2023-04-21T02:22:00;102018.57;;;23.22;44.21
73245;BME280;61460;41.158;-73.238;2023-04-21T02:24:31;102018.52;;;23.18;44.06
73245;BME280;61460;41.158;-73.238;2023-04-21T02:27:02;102020.22;;;23.25;44.25
73245;BME280;61460;41.158;-73.238;2023-04-21T02:29:32;102014.13;;;23.14;44.04
73245;BME280;61460;41.158;-73.238;2023-04-21T02:32:03;102006.75;;;23.25;43.91
73245;BME280;61460;41.158;-73.238;2023-04-21T02:34:33;102008.53;;;23.18;43.96
73245;BME280;61460;41.158;-73.238;2023-04-21T02:37:04;102009.75;;;23.19;43.91
73245;BME280;61460;41.158;-73.238;2023-04-21T02:39:35;102003.01;;;23.11;44.19
73245;BME280;61460;41.158;-73.238;2023-04-21T02:42:05;102003.61;;;23.08;44.14
73245;BME280;61460;41.158;-73.238;2023-04-21T02:44:36;102004.79;;;22.95;44.42
73245;BME280;61460;41.158;-73.238;2023-04-21T02:47:07;102003.74;;;22.96;44.67
73245;BME280;61460;41.158;-73.238;2023-04-21T02:49:40;102011.03;;;22.91;44.77
73245;BME280;61460;41.158;-73.238;2023-04-21T02:52:08;102011.97;;;23.03;44.32
73245;BME280;61460;41.158;-73.238;2023-04-21T02:54:39;102003.22;;;22.99;44.57
73245;BME280;61460;41.158;-73.238;2023-04-21T02:57:09;102004.48;;;22.95;44.74
73245;BME280;61460;41.158;-73.238;2023-04-21T02:59:40;102003.02;;;22.97;44.54
73245;BME280;61460;41.158;-73.238;2023-04-21T03:02:11;102000.59;;;22.92;44.74
73245;BME280;61460;41.158;-73.238;2023-04-21T03:04:41;102001.44;;;22.99;44.41
73245;BME280;61460;41.158;-73.238;2023-04-21T03:07:12;102002.24;;;23.01;44.46
73245;BME280;61460;41.158;-73.238;2023-04-21T03:09:42;102010.98;;;23.00;44.19
73245;BME280;61460;41.158;-73.238;2023-04-21T03:12:13;102011.78;;;22.97;44.48
73245;BME280;61460;41.158;-73.238;2023-04-21T03:14:44;102015.68;;;23.04;44.25
73245;BME280;61460;41.158;-73.238;2023-04-21T03:17:14;102008.30;;;22.92;44.36
73245;BME280;61460;41.158;-73.238;2023-04-21T03:19:45;102009.47;;;23.00;44.04
73245;BME280;61460;41.158;-73.238;2023-04-21T03:22:16;102009.19;;;22.99;44.09
73245;BME280;61460;41.158;-73.238;2023-04-21T03:24:46;102010.26;;;23.03;44.20
73245;BME280;61460;41.158;-73.238;2023-04-21T03:27:17;102012.50;;;22.97;44.31
73245;BME280;61460;41.158;-73.238;2023-04-21T03:29:48;102012.82;;;22.88;44.42
73245;BME280;61460;41.158;-73.238;2023-04-21T03:32:18;102013.87;;;22.98;44.13
73245;BME280;61460;41.158;-73.238;2023-04-21T03:34:49;102010.86;;;22.97;44.10
73245;BME280;61460;41.158;-73.238;2023-04-21T03:37:20;102008.70;;;22.91;44.16
73245;BME280;61460;41.158;-73.238;2023-04-21T03:39:50;102009.49;;;22.94;43.99
73245;BME280;61460;41.158;-73.238;2023-04-21T03:42:21;102010.91;;;23.00;43.98
73245;BME280;61460;41.158;-73.238;2023-04-21T03:44:51;102007.76;;;22.98;43.99
73245;BME280;61460;41.158;-73.238;2023-04-21T03:47:22;102011.22;;;22.96;44.00
73245;BME280;61460;41.158;-73.238;2023-04-21T03:49:53;102009.97;;;22.96;43.81
73245;BME280;61460;41.158;-73.238;2023-04-21T03:52:24;102012.88;;;22.94;43.88
73245;BME280;61460;41.158;-73.238;2023-04-21T03:54:54;102011.55;;;22.94;43.78
73245;BME280;61460;41.158;-73.238;2023-04-21T03:57:25;102012.41;;;22.97;43.60
73245;BME280;61460;41.158;-73.238;2023-04-21T03:59:55;102010.98;;;22.88;43.84
73245;BME280;61460;41.158;-73.238;2023-04-21T04:02:26;102013.85;;;22.83;43.86
73245;BME280;61460;41.158;-73.238;2023-04-21T04:04:57;102021.21;;;22.90;43.72
73245;BME280;61460;41.158;-73.238;2023-04-21T04:07:27;102020.86;;;22.89;43.65
73245;BME280;61460;41.158;-73.238;2023-04-21T04:09:58;102026.22;;;22.84;43.80
73245;BME280;61460;41.158;-73.238;2023-04-21T04:12:29;102028.53;;;22.93;43.68
73245;BME280;61460;41.158;-73.238;2023-04-21T04:14:59;102029.48;;;22.89;43.67
73245;BME280;61460;41.158;-73.238;2023-04-21T04:17:30;102037.33;;;22.86;43.68
73245;BME280;61460;41.158;-73.238;2023-04-21T04:20:01;102039.59;;;22.85;43.52
73245;BME280;61460;41.158;-73.238;2023-04-21T04:22:31;102038.50;;;22.89;43.47
73245;BME280;61460;41.158;-73.238;2023-04-21T04:25:02;102044.96;;;22.89;43.56
73245;BME280;61460;41.158;-73.238;2023-04-21T04:27:32;102044.41;;;22.83;43.66
73245;BME280;61460;41.158;-73.238;2023-04-21T04:30:03;102049.48;;;22.75;43.80
73245;BME280;61460;41.158;-73.238;2023-04-21T04:32:33;102041.11;;;22.84;43.70
73245;BME280;61460;41.158;-73.238;2023-04-21T04:35:04;102036.18;;;22.77;43.83
73245;BME280;61460;41.158;-73.238;2023-04-21T04:37:35;102032.83;;;22.82;43.81
73245;BME280;61460;41.158;-73.238;2023-04-21T04:40:07;102044.13;;;22.76;44.08
73245;BME280;61460;41.158;-73.238;2023-04-21T04:42:36;102050.05;;;22.78;44.37
73245;BME280;61460;41.158;-73.238;2023-04-21T04:45:07;102054.51;;;22.75;44.18
73245;BME280;61460;41.158;-73.238;2023-04-21T04:47:37;102051.50;;;22.73;44.22
73245;BME280;61460;41.158;-73.238;2023-04-21T04:50:08;102048.21;;;22.81;44.15
73245;BME280;61460;41.158;-73.238;2023-04-21T04:52:38;102047.08;;;22.82;44.12
73245;BME280;61460;41.158;-73.238;2023-04-21T04:55:09;102044.07;;;22.84;44.28
73245;BME280;61460;41.158;-73.238;2023-04-21T04:57:40;102047.49;;;22.87;44.09
73245;BME280;61460;41.158;-73.238;2023-04-21T05:00:11;102041.31;;;22.81;44.22
73245;BME280;61460;41.158;-73.238;2023-04-21T05:02:41;102043.16;;;22.84;44.03
73245;BME280;61460;41.158;-73.238;2023-04-21T05:05:12;102033.55;;;22.81;44.15
73245;BME280;61460;41.158;-73.238;2023-04-21T05:07:42;102034.95;;;22.78;44.20
73245;BME280;61460;41.158;-73.238;2023-04-21T05:10:13;102033.89;;;22.74;44.32
73245;BME280;61460;41.158;-73.238;2023-04-21T05:12:44;102035.66;;;22.69;44.50
73245;BME280;61460;41.158;-73.238;2023-04-21T05:15:15;102029.34;;;22.70;44.41
73245;BME280;61460;41.158;-73.238;2023-04-21T05:17:45;102024.20;;;22.72;44.39
73245;BME280;61460;41.158;-73.238;2023-04-21T05:20:16;102021.11;;;22.76;44.26
73245;BME280;61460;41.158;-73.238;2023-04-21T05:22:46;102013.71;;;22.77;44.11
73245;BME280;61460;41.158;-73.238;2023-04-21T05:25:17;102007.45;;;22.75;44.26
73245;BME280;61460;41.158;-73.238;2023-04-21T05:27:48;102000.61;;;22.72;44.13
73245;BME280;61460;41.158;-73.238;2023-04-21T05:30:18;101995.31;;;22.77;44.13
73245;BME280;61460;41.158;-73.238;2023-04-21T05:32:49;101990.36;;;22.78;44.10
73245;BME280;61460;41.158;-73.238;2023-04-21T05:35:20;101981.03;;;22.73;44.25
73245;BME280;61460;41.158;-73.238;2023-04-21T05:37:50;101972.09;;;22.85;43.91
73245;BME280;61460;41.158;-73.238;2023-04-21T05:40:21;101966.21;;;22.71;44.21
73245;BME280;61460;41.158;-73.238;2023-04-21T05:42:52;101964.96;;;22.72;44.34
73245;BME280;61460;41.158;-73.238;2023-04-21T05:45:22;101967.40;;;22.78;44.06
73245;BME280;61460;41.158;-73.238;2023-04-21T05:47:53;101967.65;;;22.77;44.44
73245;BME280;61460;41.158;-73.238;2023-04-21T05:50:24;101968.05;;;22.76;44.36
73245;BME280;61460;41.158;-73.238;2023-04-21T05:52:54;101967.17;;;22.70;44.51
73245;BME280;61460;41.158;-73.238;2023-04-21T05:55:25;101960.00;;;22.65;44.58
73245;BME280;61460;41.158;-73.238;2023-04-21T05:57:56;101961.52;;;22.71;44.63
73245;BME280;61460;41.158;-73.238;2023-04-21T06:00:26;101961.31;;;22.72;44.38
73245;BME280;61460;41.158;-73.238;2023-04-21T06:02:57;101959.42;;;22.67;44.47
73245;BME280;61460;41.158;-73.238;2023-04-21T06:05:27;101950.38;;;22.66;44.43
73245;BME280;61460;41.158;-73.238;2023-04-21T06:07:58;101947.37;;;22.75;44.20
73245;BME280;61460;41.158;-73.238;2023-04-21T06:10:29;101949.84;;;22.66;44.31
73245;BME280;61460;41.158;-73.238;2023-04-21T06:13:00;101950.82;;;22.72;44.23
73245;BME280;61460;41.158;-73.238;2023-04-21T06:15:30;101949.39;;;22.68;44.17
73245;BME280;61460;41.158;-73.238;2023-04-21T06:18:01;101952.23;;;22.72;44.09
73245;BME280;61460;41.158;-73.238;2023-04-21T06:20:31;101950.66;;;22.71;44.25
73245;BME280;61460;41.158;-73.238;2023-04-21T06:23:02;101956.06;;;22.78;44.16
73245;BME280;61460;41.158;-73.238;2023-04-21T06:25:33;101950.20;;;22.82;43.99
73245;BME280;61460;41.158;-73.238;2023-04-21T06:28:03;101945.88;;;22.83;43.88
73245;BME280;61460;41.158;-73.238;2023-04-21T06:30:34;101953.97;;;22.82;43.88
73245;BME280;61460;41.158;-73.238;2023-04-21T06:33:05;101949.29;;;22.85;43.74
73245;BME280;61460;41.158;-73.238;2023-04-21T06:35:35;101947.98;;;22.86;43.62
73245;BME280;61460;41.158;-73.238;2023-04-21T06:38:08;101944.27;;;22.83;43.59
73245;BME280;61460;41.158;-73.238;2023-04-21T06:40:37;101936.18;;;22.81;43.58
73245;BME280;61460;41.158;-73.238;2023-04-21T06:43:07;101924.82;;;22.85;43.56
73245;BME280;61460;41.158;-73.238;2023-04-21T06:45:38;101921.96;;;22.81;43.55
73245;BME280;61460;41.158;-73.238;2023-04-21T06:48:09;101925.80;;;22.80;43.47
73245;BME280;61460;41.158;-73.238;2023-04-21T06:50:39;101934.78;;;22.73;43.74
73245;BME280;61460;41.158;-73.238;2023-04-21T06:53:10;101939.05;;;22.71;43.72
73245;BME280;61460;41.158;-73.238;2023-04-21T06:55:41;101942.18;;;22.73;43.67
73245;BME280;61460;41.158;-73.238;2023-04-21T06:58:11;101940.99;;;22.75;43.61
73245;BME280;61460;41.158;-73.238;2023-04-21T07:00:42;101937.03;;;22.72;43.68
73245;BME280;61460;41.158;-73.238;2023-04-21T07:03:12;101943.38;;;22.69;43.78
73245;BME280;61460;41.158;-73.238;2023-04-21T07:05:43;101945.03;;;22.78;43.20
73245;BME280;61460;41.158;-73.238;2023-04-21T07:08:14;101945.94;;;22.77;43.33
73245;BME280;61460;41.158;-73.238;2023-04-21T07:10:44;101951.61;;;22.79;43.24
73245;BME280;61460;41.158;-73.238;2023-04-21T07:13:15;101955.44;;;22.79;43.28
73245;BME280;61460;41.158;-73.238;2023-04-21T07:15:46;101957.50;;;22.77;43.35
73245;BME280;61460;41.158;-73.238;2023-04-21T07:18:18;101954.97;;;22.67;43.65
73245;BME280;61460;41.158;-73.238;2023-04-21T07:20:47;101953.74;;;22.71;43.66
73245;BME280;61460;41.158;-73.238;2023-04-21T07:23:18;101951.53;;;22.62;43.65
73245;BME280;61460;41.158;-73.238;2023-04-21T07:25:48;101954.64;;;22.64;43.64
73245;BME280;61460;41.158;-73.238;2023-04-21T07:28:20;101953.36;;;22.62;43.56
73245;BME280;61460;41.158;-73.238;2023-04-21T07:30:50;101951.42;;;22.55;43.68
73245;BME280;61460;41.158;-73.238;2023-04-21T07:33:20;101947.64;;;22.59;43.75
73245;BME280;61460;41.158;-73.238;2023-04-21T07:35:51;101945.30;;;22.54;43.71
73245;BME280;61460;41.158;-73.238;2023-04-21T07:38:22;101943.21;;;22.58;43.61
73245;BME280;61460;41.158;-73.238;2023-04-21T07:40:52;101943.66;;;22.56;43.71
73245;BME280;61460;41.158;-73.238;2023-04-21T07:43:23;101950.27;;;22.58;43.63
73245;BME280;61460;41.158;-73.238;2023-04-21T07:45:54;101955.97;;;22.50;43.63
73245;BME280;61460;41.158;-73.238;2023-04-21T07:48:24;101958.49;;;22.46;43.83
73245;BME280;61460;41.158;-73.238;2023-04-21T07:50:55;101953.23;;;22.48;43.66
73245;BME280;61460;41.158;-73.238;2023-04-21T07:53:26;101959.52;;;22.50;43.70
73245;BME280;61460;41.158;-73.238;2023-04-21T07:55:57;101954.80;;;22.47;43.71
73245;BME280;61460;41.158;-73.238;2023-04-21T07:58:27;101957.22;;;22.46;43.73
73245;BME280;61460;41.158;-73.238;2023-04-21T08:00:57;101965.27;;;22.47;43.74
73245;BME280;61460;41.158;-73.238;2023-04-21T08:03:28;101967.82;;;22.41;43.67
73245;BME280;61460;41.158;-73.238;2023-04-21T08:05:59;101966.18;;;22.41;43.73
73245;BME280;61460;41.158;-73.238;2023-04-21T08:08:29;101963.87;;;22.46;43.91
73245;BME280;61460;41.158;-73.238;2023-04-21T08:11:00;101964.98;;;22.52;43.80
73245;BME280;61460;41.158;-73.238;2023-04-21T08:13:31;101965.19;;;22.56;43.67
73245;BME280;61460;41.158;-73.238;2023-04-21T08:16:01;101967.12;;;22.57;43.73
73245;BME280;61460;41.158;-73.238;2023-04-21T08:18:32;101966.56;;;22.54;43.68
73245;BME280;61460;41.158;-73.238;2023-04-21T08:21:03;101971.58;;;22.51;43.72
73245;BME280;61460;41.158;-73.238;2023-04-21T08:23:33;101967.31;;;22.48;43.71
73245;BME280;61460;41.158;-73.238;2023-04-21T08:26:04;101961.23;;;22.46;43.79
73245;BME280;61460;41.158;-73.238;2023-04-21T08:28:34;101966.45;;;22.50;43.70
73245;BME280;61460;41.158;-73.238;2023-04-21T08:31:05;101969.30;;;22.49;43.67
73245;BME280;61460;41.158;-73.238;2023-04-21T08:33:36;101973.17;;;22.49;43.66
73245;BME280;61460;41.158;-73.238;2023-04-21T08:36:07;101968.50;;;22.47;43.65
73245;BME280;61460;41.158;-73.238;2023-04-21T08:38:37;101965.10;;;22.47;43.65
73245;BME280;61460;41.158;-73.238;2023-04-21T08:41:08;101968.90;;;22.52;43.59
73245;BME280;61460;41.158;-73.238;2023-04-21T08:43:39;101968.63;;;22.52;43.57
73245;BME280;61460;41.158;-73.238;2023-04-21T08:46:10;101973.61;;;22.51;43.49
73245;BME280;61460;41.158;-73.238;2023-04-21T08:48:40;101972.76;;;22.48;43.61
73245;BME280;61460;41.158;-73.238;2023-04-21T08:51:10;101983.10;;;22.48;43.61
73245;BME280;61460;41.158;-73.238;2023-04-21T08:53:41;101984.49;;;22.49;43.60
73245;BME280;61460;41.158;-73.238;2023-04-21T08:56:12;101984.94;;;22.51;43.57
73245;BME280;61460;41.158;-73.238;2023-04-21T08:58:42;101984.26;;;22.46;43.70
73245;BME280;61460;41.158;-73.238;2023-04-21T09:01:13;101978.97;;;22.47;43.76
73245;BME280;61460;41.158;-73.238;2023-04-21T09:03:44;101980.93;;;22.47;43.69
73245;BME280;61460;41.158;-73.238;2023-04-21T09:06:14;101985.50;;;22.52;43.41
73245;BME280;61460;41.158;-73.238;2023-04-21T09:08:53;101983.79;;;22.53;43.53
73245;BME280;61460;41.158;-73.238;2023-04-21T09:11:16;101983.52;;;22.57;43.36
73245;BME280;61460;41.158;-73.238;2023-04-21T09:13:46;101980.41;;;22.53;43.56
73245;BME280;61460;41.158;-73.238;2023-04-21T09:16:19;101979.06;;;22.45;43.64
73245;BME280;61460;41.158;-73.238;2023-04-21T09:18:49;101976.99;;;22.40;44.01
73245;BME280;61460;41.158;-73.238;2023-04-21T09:21:19;101967.72;;;22.44;43.91
73245;BME280;61460;41.158;-73.238;2023-04-21T09:23:50;101969.97;;;22.48;43.97
73245;BME280;61460;41.158;-73.238;2023-04-21T09:26:20;101967.35;;;22.42;44.06
73245;BME280;61460;41.158;-73.238;2023-04-21T09:28:52;101962.06;;;22.49;43.75
73245;BME280;61460;41.158;-73.238;2023-04-21T09:31:22;101955.87;;;22.43;43.79
73245;BME280;61460;41.158;-73.238;2023-04-21T09:33:55;101953.15;;;22.44;43.95
73245;BME280;61460;41.158;-73.238;2023-04-21T09:36:24;101946.37;;;22.36;44.10
73245;BME280;61460;41.158;-73.238;2023-04-21T09:38:57;101940.19;;;22.44;43.81
73245;BME280;61460;41.158;-73.238;2023-04-21T09:41:24;101939.77;;;22.38;43.91
73245;BME280;61460;41.158;-73.238;2023-04-21T09:43:54;101941.46;;;22.38;44.05
73245;BME280;61460;41.158;-73.238;2023-04-21T09:46:25;101935.10;;;22.36;44.05
73245;BME280;61460;41.158;-73.238;2023-04-21T09:48:57;101933.99;;;22.40;43.85
73245;BME280;61460;41.158;-73.238;2023-04-21T09:51:27;101931.65;;;22.41;43.77
73245;BME280;61460;41.158;-73.238;2023-04-21T09:53:59;101928.69;;;22.40;43.61
73245;BME280;61460;41.158;-73.238;2023-04-21T09:56:29;101923.40;;;22.31;44.02
73245;BME280;61460;41.158;-73.238;2023-04-21T09:59:00;101917.27;;;22.30;44.09
73245;BME280;61460;41.158;-73.238;2023-04-21T10:01:29;101916.54;;;22.35;43.89
73245;BME280;61460;41.158;-73.238;2023-04-21T10:03:59;101919.65;;;22.32;43.98
73245;BME280;61460;41.158;-73.238;2023-04-21T10:06:31;101927.46;;;22.44;43.60
73245;BME280;61460;41.158;-73.238;2023-04-21T10:09:03;101922.98;;;22.43;43.58
73245;BME280;61460;41.158;-73.238;2023-04-21T10:11:31;101926.87;;;22.40;43.54
73245;BME280;61460;41.158;-73.238;2023-04-21T10:14:02;101930.79;;;22.43;43.36
73245;BME280;61460;41.158;-73.238;2023-04-21T10:16:35;101936.85;;;22.42;43.36
73245;BME280;61460;41.158;-73.238;2023-04-21T10:21:35;101927.72;;;22.39;43.42
73245;BME280;61460;41.158;-73.238;2023-04-21T10:24:06;101932.31;;;22.36;43.52
73245;BME280;61460;41.158;-73.238;2023-04-21T10:26:35;101927.01;;;22.31;43.59
73245;BME280;61460;41.158;-73.238;2023-04-21T10:29:07;101918.31;;;22.33;43.50
73245;BME280;61460;41.158;-73.238;2023-04-21T10:31:39;101920.44;;;22.29;43.79
73245;BME280;61460;41.158;-73.238;2023-04-21T10:34:12;101919.62;;;22.37;44.11
73245;BME280;61460;41.158;-73.238;2023-04-21T10:36:42;101921.10;;;22.44;44.29
73245;BME280;61460;41.158;-73.238;2023-04-21T10:39:09;101926.07;;;22.42;44.75
73245;BME280;61460;41.158;-73.238;2023-04-21T10:41:42;101926.66;;;22.43;44.02
73245;BME280;61460;41.158;-73.238;2023-04-21T10:44:12;101931.27;;;22.45;43.92
73245;BME280;61460;41.158;-73.238;2023-04-21T10:46:45;101934.85;;;22.35;44.12
73245;BME280;61460;41.158;-73.238;2023-04-21T10:49:20;101934.21;;;22.34;43.96
73245;BME280;61460;41.158;-73.238;2023-04-21T10:54:13;101935.62;;;22.37;44.33
73245;BME280;61460;41.158;-73.238;2023-04-21T10:56:43;101935.84;;;22.37;43.97
73245;BME280;61460;41.158;-73.238;2023-04-21T10:59:14;101940.60;;;22.30;44.34
73245;BME280;61460;41.158;-73.238;2023-04-21T11:01:44;101944.47;;;22.29;44.44
73245;BME280;61460;41.158;-73.238;2023-04-21T11:04:15;101947.32;;;22.39;44.14
73245;BME280;61460;41.158;-73.238;2023-04-21T11:09:16;101941.39;;;22.42;44.20
73245;BME280;61460;41.158;-73.238;2023-04-21T11:14:18;101946.15;;;22.38;44.37
73245;BME280;61460;41.158;-73.238;2023-04-21T11:16:48;101947.84;;;22.42;44.29
73245;BME280;61460;41.158;-73.238;2023-04-21T11:19:19;101944.58;;;22.37;44.42
73245;BME280;61460;41.158;-73.238;2023-04-21T11:21:50;101955.82;;;22.39;44.41
73245;BME280;61460;41.158;-73.238;2023-04-21T11:24:20;101960.57;;;22.47;44.11
73245;BME280;61460;41.158;-73.238;2023-04-21T11:26:51;101963.78;;;22.67;44.06
73245;BME280;61460;41.158;-73.238;2023-04-21T11:29:22;101965.31;;;22.71;44.03
73245;BME280;61460;41.158;-73.238;2023-04-21T11:31:52;101969.21;;;22.78;43.97
73245;BME280;61460;41.158;-73.238;2023-04-21T11:34:24;101970.10;;;22.83;44.00
73245;BME280;61460;41.158;-73.238;2023-04-21T11:36:53;101972.58;;;22.78;43.93
73245;BME280;61460;41.158;-73.238;2023-04-21T11:39:24;101963.19;;;22.77;44.00
73245;BME280;61460;41.158;-73.238;2023-04-21T11:41:54;101963.67;;;22.77;43.80
73245;BME280;61460;41.158;-73.238;2023-04-21T11:44:30;101964.69;;;22.72;43.89
73245;BME280;61460;41.158;-73.238;2023-04-21T11:46:56;101968.98;;;22.77;43.86
73245;BME280;61460;41.158;-73.238;2023-04-21T11:49:26;101970.21;;;22.74;43.90
73245;BME280;61460;41.158;-73.238;2023-04-21T11:51:57;101966.32;;;22.72;43.92
73245;BME280;61460;41.158;-73.238;2023-04-21T11:54:28;101975.57;;;22.73;43.76
73245;BME280;61460;41.158;-73.238;2023-04-21T11:56:59;101973.72;;;22.74;43.71
73245;BME280;61460;41.158;-73.238;2023-04-21T11:59:29;101978.37;;;22.77;43.50
73245;BME280;61460;41.158;-73.238;2023-04-21T12:01:59;101979.17;;;22.83;43.30
73245;BME280;61460;41.158;-73.238;2023-04-21T12:04:30;101982.77;;;22.87;43.14
73245;BME280;61460;41.158;-73.238;2023-04-21T12:07:01;101980.16;;;22.87;43.09
73245;BME280;61460;41.158;-73.238;2023-04-21T12:09:35;101985.94;;;22.89;42.86
73245;BME280;61460;41.158;-73.238;2023-04-21T12:12:03;101988.58;;;22.92;42.78
73245;BME280;61460;41.158;-73.238;2023-04-21T12:14:33;101987.44;;;22.96;42.60
73245;BME280;61460;41.158;-73.238;2023-04-21T12:17:06;101979.12;;;22.95;42.61
73245;BME280;61460;41.158;-73.238;2023-04-21T12:19:36;101981.50;;;22.96;42.50
73245;BME280;61460;41.158;-73.238;2023-04-21T12:22:07;101975.19;;;22.98;42.47
73245;BME280;61460;41.158;-73.238;2023-04-21T12:24:36;101973.44;;;22.98;42.43
73245;BME280;61460;41.158;-73.238;2023-04-21T12:27:06;101970.60;;;22.99;42.40
73245;BME280;61460;41.158;-73.238;2023-04-21T12:29:37;101967.56;;;22.99;42.33
73245;BME280;61460;41.158;-73.238;2023-04-21T12:32:07;101963.60;;;23.02;42.24
73245;BME280;61460;41.158;-73.238;2023-04-21T12:34:37;101965.52;;;23.01;42.24
73245;BME280;61460;41.158;-73.238;2023-04-21T12:37:09;101962.14;;;23.01;42.21
73245;BME280;61460;41.158;-73.238;2023-04-21T12:39:39;101970.72;;;22.99;42.24
73245;BME280;61460;41.158;-73.238;2023-04-21T12:42:09;101968.55;;;23.01;42.12
73245;BME280;61460;41.158;-73.238;2023-04-21T12:44:40;101972.83;;;23.02;42.09
73245;BME280;61460;41.158;-73.238;2023-04-21T12:47:11;101970.52;;;23.06;42.00
73245;BME280;61460;41.158;-73.238;2023-04-21T12:49:41;101973.55;;;23.02;42.02
73245;BME280;61460;41.158;-73.238;2023-04-21T12:52:12;101969.61;;;23.03;42.01
73245;BME280;61460;41.158;-73.238;2023-04-21T12:54:43;101968.39;;;23.02;41.92
73245;BME280;61460;41.158;-73.238;2023-04-21T12:57:13;101971.03;;;23.03;41.87
73245;BME280;61460;41.158;-73.238;2023-04-21T12:59:44;101965.94;;;23.03;41.83